sensor_id;sensor_type;location;lat;lon;timestamp;P1;durP1;ratioP1;P2;durP2;ratioP2
71172;SDS011;58875;51.996;4.504;2023-06-14T00:00:13;5.05;;;5.05;;
71172;SDS011;58875;51.996;4.504;2023-06-14T00:02:40;5.11;;;5.11;;
71172;SDS011;58875;51.996;4.504;2023-06-14T00:05:06;5.47;;;5.47;;
71172;SDS011;58875;51.996;4.504;2023-06-14T00:07:36;5.36;;;5.36;;
71172;SDS011;58875;51.996;4.504;2023-06-14T00:10:10;5.17;;;5.17;;
71172;SDS011;58875;51.996;4.504;2023-06-14T00:12:37;5.15;;;5.15;;
71172;SDS011;58875;51.996;4.504;2023-06-14T00:15:04;5.51;;;5.51;;
71172;SDS011;58875;51.996;4.504;2023-06-14T00:17:30;5.50;;;5.50;;
71172;SDS011;58875;51.996;4.504;2023-06-14T00:19:57;5.53;;;5.53;;
71172;SDS011;58875;51.996;4.504;2023-06-14T00:22:25;5.31;;;5.31;;
71172;SDS011;58875;51.996;4.504;2023-06-14T00:24:54;5.39;;;5.39;;
71172;SDS011;58875;51.996;4.504;2023-06-14T00:27:19;5.36;;;5.36;;
71172;SDS011;58875;51.996;4.504;2023-06-14T00:29:45;5.80;;;5.80;;
71172;SDS011;58875;51.996;4.504;2023-06-14T00:32:10;5.77;;;5.77;;
71172;SDS011;58875;51.996;4.504;2023-06-14T00:34:36;5.52;;;5.52;;
71172;SDS011;58875;51.996;4.504;2023-06-14T00:37:01;5.58;;;5.58;;
71172;SDS011;58875;51.996;4.504;2023-06-14T00:39:27;5.87;;;5.87;;
71172;SDS011;58875;51.996;4.504;2023-06-14T00:41:52;5.60;;;5.60;;
71172;SDS011;58875;51.996;4.504;2023-06-14T00:44:18;5.78;;;5.78;;
71172;SDS011;58875;51.996;4.504;2023-06-14T00:46:47;5.83;;;5.83;;
71172;SDS011;58875;51.996;4.504;2023-06-14T00:49:16;5.72;;;5.72;;
71172;SDS011;58875;51.996;4.504;2023-06-14T00:51:43;5.62;;;5.62;;
71172;SDS011;58875;51.996;4.504;2023-06-14T00:54:08;5.72;;;5.72;;
71172;SDS011;58875;51.996;4.504;2023-06-14T00:56:36;5.89;;;5.89;;
71172;SDS011;58875;51.996;4.504;2023-06-14T00:59:02;5.84;;;5.84;;
71172;SDS011;58875;51.996;4.504;2023-06-14T01:01:28;5.62;;;5.62;;
71172;SDS011;58875;51.996;4.504;2023-06-14T01:03:57;5.83;;;5.83;;
71172;SDS011;58875;51.996;4.504;2023-06-14T01:09:11;5.95;;;5.95;;
71172;SDS011;58875;51.996;4.504;2023-06-14T01:14:17;6.14;;;6.14;;
71172;SDS011;58875;51.996;4.504;2023-06-14T01:16:43;6.18;;;6.18;;
71172;SDS011;58875;51.996;4.504;2023-06-14T01:19:10;6.13;;;6.13;;
71172;SDS011;58875;51.996;4.504;2023-06-14T01:21:39;6.08;;;6.08;;
71172;SDS011;58875;51.996;4.504;2023-06-14T01:24:07;5.66;;;5.66;;
71172;SDS011;58875;51.996;4.504;2023-06-14T01:26:34;5.85;;;5.85;;
71172;SDS011;58875;51.996;4.504;2023-06-14T01:29:02;5.53;;;5.53;;
71172;SDS011;58875;51.996;4.504;2023-06-14T01:31:29;5.56;;;5.56;;
71172;SDS011;58875;51.996;4.504;2023-06-14T01:34:05;5.88;;;5.88;;
71172;SDS011;58875;51.996;4.504;2023-06-14T01:36:30;5.77;;;5.77;;
71172;SDS011;58875;51.996;4.504;2023-06-14T01:38:56;5.99;;;5.99;;
71172;SDS011;58875;51.996;4.504;2023-06-14T01:41:24;5.95;;;5.95;;
71172;SDS011;58875;51.996;4.504;2023-06-14T01:43:52;5.97;;;5.97;;
71172;SDS011;58875;51.996;4.504;2023-06-14T01:46:18;5.88;;;5.88;;
71172;SDS011;58875;51.996;4.504;2023-06-14T01:48:45;6.04;;;6.04;;
71172;SDS011;58875;51.996;4.504;2023-06-14T01:51:11;6.01;;;6.01;;
71172;SDS011;58875;51.996;4.504;2023-06-14T01:53:36;6.04;;;6.04;;
71172;SDS011;58875;51.996;4.504;2023-06-14T01:56:02;5.90;;;5.90;;
71172;SDS011;58875;51.996;4.504;2023-06-14T01:58:28;6.22;;;6.22;;
71172;SDS011;58875;51.996;4.504;2023-06-14T02:00:54;6.06;;;6.06;;
71172;SDS011;58875;51.996;4.504;2023-06-14T02:03:20;6.50;;;6.50;;
71172;SDS011;58875;51.996;4.504;2023-06-14T02:05:46;6.12;;;6.12;;
71172;SDS011;58875;51.996;4.504;2023-06-14T02:08:12;6.07;;;6.07;;
71172;SDS011;58875;51.996;4.504;2023-06-14T02:10:37;6.48;;;6.48;;
71172;SDS011;58875;51.996;4.504;2023-06-14T02:13:03;6.44;;;6.44;;
71172;SDS011;58875;51.996;4.504;2023-06-14T02:15:28;6.52;;;6.52;;
71172;SDS011;58875;51.996;4.504;2023-06-14T02:17:59;5.90;;;5.90;;
71172;SDS011;58875;51.996;4.504;2023-06-14T02:20:26;5.89;;;5.89;;
71172;SDS011;58875;51.996;4.504;2023-06-14T02:22:52;6.13;;;6.13;;
71172;SDS011;58875;51.996;4.504;2023-06-14T02:25:17;6.29;;;6.29;;
71172;SDS011;58875;51.996;4.504;2023-06-14T02:27:43;6.01;;;6.01;;
71172;SDS011;58875;51.996;4.504;2023-06-14T02:30:09;6.08;;;6.08;;
71172;SDS011;58875;51.996;4.504;2023-06-14T02:32:35;6.04;;;6.04;;
71172;SDS011;58875;51.996;4.504;2023-06-14T02:35:01;5.76;;;5.76;;
71172;SDS011;58875;51.996;4.504;2023-06-14T02:37:27;5.91;;;5.91;;
71172;SDS011;58875;51.996;4.504;2023-06-14T02:39:52;5.81;;;5.81;;
71172;SDS011;58875;51.996;4.504;2023-06-14T02:42:18;5.82;;;5.82;;
71172;SDS011;58875;51.996;4.504;2023-06-14T02:44:43;5.92;;;5.92;;
71172;SDS011;58875;51.996;4.504;2023-06-14T02:47:10;6.35;;;6.35;;
71172;SDS011;58875;51.996;4.504;2023-06-14T02:49:35;5.83;;;5.83;;
71172;SDS011;58875;51.996;4.504;2023-06-14T02:52:01;5.85;;;5.85;;
71172;SDS011;58875;51.996;4.504;2023-06-14T02:54:30;6.09;;;6.09;;
71172;SDS011;58875;51.996;4.504;2023-06-14T02:56:55;6.10;;;6.10;;
71172;SDS011;58875;51.996;4.504;2023-06-14T02:59:21;5.92;;;5.92;;
71172;SDS011;58875;51.996;4.504;2023-06-14T03:01:50;6.03;;;6.03;;
71172;SDS011;58875;51.996;4.504;2023-06-14T03:04:15;6.11;;;6.11;;
71172;SDS011;58875;51.996;4.504;2023-06-14T03:06:41;6.44;;;6.44;;
71172;SDS011;58875;51.996;4.504;2023-06-14T03:09:09;6.30;;;6.30;;
71172;SDS011;58875;51.996;4.504;2023-06-14T03:11:34;6.33;;;6.33;;
71172;SDS011;58875;51.996;4.504;2023-06-14T03:14:00;5.78;;;5.78;;
71172;SDS011;58875;51.996;4.504;2023-06-14T03:16:29;6.01;;;6.01;;
71172;SDS011;58875;51.996;4.504;2023-06-14T03:18:55;5.89;;;5.89;;
71172;SDS011;58875;51.996;4.504;2023-06-14T03:21:20;6.03;;;6.03;;
71172;SDS011;58875;51.996;4.504;2023-06-14T03:23:47;6.16;;;6.16;;
71172;SDS011;58875;51.996;4.504;2023-06-14T03:26:13;6.36;;;6.36;;
71172;SDS011;58875;51.996;4.504;2023-06-14T03:28:46;6.08;;;6.08;;
71172;SDS011;58875;51.996;4.504;2023-06-14T03:31:12;6.01;;;6.01;;
71172;SDS011;58875;51.996;4.504;2023-06-14T03:33:39;5.77;;;5.77;;
71172;SDS011;58875;51.996;4.504;2023-06-14T03:36:05;5.77;;;5.77;;
71172;SDS011;58875;51.996;4.504;2023-06-14T03:38:32;5.86;;;5.86;;
71172;SDS011;58875;51.996;4.504;2023-06-14T03:40:57;5.96;;;5.96;;
71172;SDS011;58875;51.996;4.504;2023-06-14T03:43:23;5.98;;;5.98;;
71172;SDS011;58875;51.996;4.504;2023-06-14T03:45:49;6.18;;;6.18;;
71172;SDS011;58875;51.996;4.504;2023-06-14T03:48:14;6.30;;;6.30;;
71172;SDS011;58875;51.996;4.504;2023-06-14T03:50:40;5.97;;;5.97;;
71172;SDS011;58875;51.996;4.504;2023-06-14T03:53:08;6.25;;;6.25;;
71172;SDS011;58875;51.996;4.504;2023-06-14T03:55:34;5.98;;;5.98;;
71172;SDS011;58875;51.996;4.504;2023-06-14T03:58:00;5.69;;;5.69;;
71172;SDS011;58875;51.996;4.504;2023-06-14T04:00:26;5.73;;;5.73;;
71172;SDS011;58875;51.996;4.504;2023-06-14T04:02:52;6.04;;;6.04;;
71172;SDS011;58875;51.996;4.504;2023-06-14T04:05:19;6.02;;;6.02;;
71172;SDS011;58875;51.996;4.504;2023-06-14T04:07:45;6.35;;;6.35;;
71172;SDS011;58875;51.996;4.504;2023-06-14T04:10:13;5.82;;;5.82;;
71172;SDS011;58875;51.996;4.504;2023-06-14T04:12:41;6.09;;;6.09;;
71172;SDS011;58875;51.996;4.504;2023-06-14T04:15:07;5.75;;;5.75;;
71172;SDS011;58875;51.996;4.504;2023-06-14T04:17:36;5.69;;;5.69;;
71172;SDS011;58875;51.996;4.504;2023-06-14T04:20:02;5.79;;;5.79;;
71172;SDS011;58875;51.996;4.504;2023-06-14T04:22:30;5.66;;;5.66;;
71172;SDS011;58875;51.996;4.504;2023-06-14T04:24:56;5.41;;;5.41;;
71172;SDS011;58875;51.996;4.504;2023-06-14T04:27:22;5.83;;;5.83;;
71172;SDS011;58875;51.996;4.504;2023-06-14T04:29:50;5.77;;;5.77;;
71172;SDS011;58875;51.996;4.504;2023-06-14T04:32:28;5.41;;;5.41;;
71172;SDS011;58875;51.996;4.504;2023-06-14T04:34:59;5.49;;;5.49;;
71172;SDS011;58875;51.996;4.504;2023-06-14T04:37:31;5.86;;;5.86;;
71172;SDS011;58875;51.996;4.504;2023-06-14T04:40:01;5.67;;;5.67;;
71172;SDS011;58875;51.996;4.504;2023-06-14T04:42:30;5.52;;;5.52;;
71172;SDS011;58875;51.996;4.504;2023-06-14T04:44:56;5.59;;;5.59;;
71172;SDS011;58875;51.996;4.504;2023-06-14T04:47:22;5.37;;;5.37;;
71172;SDS011;58875;51.996;4.504;2023-06-14T04:49:50;5.45;;;5.45;;
71172;SDS011;58875;51.996;4.504;2023-06-14T04:52:18;5.45;;;5.45;;
71172;SDS011;58875;51.996;4.504;2023-06-14T04:54:46;5.43;;;5.43;;
71172;SDS011;58875;51.996;4.504;2023-06-14T04:57:12;5.72;;;5.72;;
71172;SDS011;58875;51.996;4.504;2023-06-14T04:59:42;5.14;;;5.14;;
71172;SDS011;58875;51.996;4.504;2023-06-14T05:02:09;5.37;;;5.37;;
71172;SDS011;58875;51.996;4.504;2023-06-14T05:04:36;5.45;;;5.45;;
71172;SDS011;58875;51.996;4.504;2023-06-14T05:07:08;5.28;;;5.28;;
71172;SDS011;58875;51.996;4.504;2023-06-14T05:09:35;5.74;;;5.74;;
71172;SDS011;58875;51.996;4.504;2023-06-14T05:12:01;5.66;;;5.66;;
71172;SDS011;58875;51.996;4.504;2023-06-14T05:14:26;5.60;;;5.60;;
71172;SDS011;58875;51.996;4.504;2023-06-14T05:16:52;5.36;;;5.36;;
71172;SDS011;58875;51.996;4.504;2023-06-14T05:19:18;5.33;;;5.33;;
71172;SDS011;58875;51.996;4.504;2023-06-14T05:21:46;5.48;;;5.48;;
71172;SDS011;58875;51.996;4.504;2023-06-14T05:24:13;5.49;;;5.49;;
71172;SDS011;58875;51.996;4.504;2023-06-14T05:26:39;5.56;;;5.56;;
71172;SDS011;58875;51.996;4.504;2023-06-14T05:29:04;5.30;;;5.30;;
71172;SDS011;58875;51.996;4.504;2023-06-14T05:31:30;5.44;;;5.44;;
71172;SDS011;58875;51.996;4.504;2023-06-14T05:33:56;5.55;;;5.55;;
71172;SDS011;58875;51.996;4.504;2023-06-14T05:36:24;5.43;;;5.43;;
71172;SDS011;58875;51.996;4.504;2023-06-14T05:38:51;5.24;;;5.24;;
71172;SDS011;58875;51.996;4.504;2023-06-14T05:41:23;5.35;;;5.35;;
71172;SDS011;58875;51.996;4.504;2023-06-14T05:43:51;5.35;;;5.35;;
71172;SDS011;58875;51.996;4.504;2023-06-14T05:46:17;5.57;;;5.57;;
71172;SDS011;58875;51.996;4.504;2023-06-14T05:48:47;5.36;;;5.36;;
71172;SDS011;58875;51.996;4.504;2023-06-14T05:51:13;5.24;;;5.24;;
71172;SDS011;58875;51.996;4.504;2023-06-14T05:53:39;5.21;;;5.21;;
71172;SDS011;58875;51.996;4.504;2023-06-14T05:56:05;5.42;;;5.42;;
71172;SDS011;58875;51.996;4.504;2023-06-14T05:58:31;5.36;;;5.36;;
71172;SDS011;58875;51.996;4.504;2023-06-14T06:00:56;5.20;;;5.20;;
71172;SDS011;58875;51.996;4.504;2023-06-14T06:03:22;5.39;;;5.39;;
71172;SDS011;58875;51.996;4.504;2023-06-14T06:05:48;5.46;;;5.46;;
71172;SDS011;58875;51.996;4.504;2023-06-14T06:08:14;5.29;;;5.29;;
71172;SDS011;58875;51.996;4.504;2023-06-14T06:10:41;5.45;;;5.45;;
71172;SDS011;58875;51.996;4.504;2023-06-14T06:13:07;5.37;;;5.37;;
71172;SDS011;58875;51.996;4.504;2023-06-14T06:15:32;5.63;;;5.63;;
71172;SDS011;58875;51.996;4.504;2023-06-14T06:17:58;5.23;;;5.23;;
71172;SDS011;58875;51.996;4.504;2023-06-14T06:20:24;5.47;;;5.47;;
71172;SDS011;58875;51.996;4.504;2023-06-14T06:22:54;5.31;;;5.31;;
71172;SDS011;58875;51.996;4.504;2023-06-14T06:25:19;5.42;;;5.42;;
71172;SDS011;58875;51.996;4.504;2023-06-14T06:27:45;5.46;;;5.46;;
71172;SDS011;58875;51.996;4.504;2023-06-14T06:30:11;5.31;;;5.31;;
71172;SDS011;58875;51.996;4.504;2023-06-14T06:32:37;5.38;;;5.38;;
71172;SDS011;58875;51.996;4.504;2023-06-14T06:35:02;5.57;;;5.57;;
71172;SDS011;58875;51.996;4.504;2023-06-14T06:37:31;5.40;;;5.40;;
71172;SDS011;58875;51.996;4.504;2023-06-14T06:39:56;5.48;;;5.48;;
71172;SDS011;58875;51.996;4.504;2023-06-14T06:42:23;5.88;;;5.88;;
71172;SDS011;58875;51.996;4.504;2023-06-14T06:44:48;5.75;;;5.75;;
71172;SDS011;58875;51.996;4.504;2023-06-14T06:47:14;5.43;;;5.43;;
71172;SDS011;58875;51.996;4.504;2023-06-14T06:49:39;5.61;;;5.61;;
71172;SDS011;58875;51.996;4.504;2023-06-14T06:52:05;5.77;;;5.77;;
71172;SDS011;58875;51.996;4.504;2023-06-14T06:54:33;5.56;;;5.56;;
71172;SDS011;58875;51.996;4.504;2023-06-14T06:56:59;5.83;;;5.83;;
71172;SDS011;58875;51.996;4.504;2023-06-14T06:59:26;5.76;;;5.76;;
71172;SDS011;58875;51.996;4.504;2023-06-14T07:01:53;5.58;;;5.58;;
71172;SDS011;58875;51.996;4.504;2023-06-14T07:04:18;5.91;;;5.91;;
71172;SDS011;58875;51.996;4.504;2023-06-14T07:06:45;5.72;;;5.72;;
71172;SDS011;58875;51.996;4.504;2023-06-14T07:09:12;5.54;;;5.54;;
71172;SDS011;58875;51.996;4.504;2023-06-14T07:11:40;5.70;;;5.70;;
71172;SDS011;58875;51.996;4.504;2023-06-14T07:14:07;5.91;;;5.91;;
71172;SDS011;58875;51.996;4.504;2023-06-14T07:16:33;5.80;;;5.80;;
71172;SDS011;58875;51.996;4.504;2023-06-14T07:18:58;5.71;;;5.71;;
71172;SDS011;58875;51.996;4.504;2023-06-14T07:21:25;5.75;;;5.75;;
71172;SDS011;58875;51.996;4.504;2023-06-14T07:23:52;5.93;;;5.93;;
71172;SDS011;58875;51.996;4.504;2023-06-14T07:26:18;5.71;;;5.71;;
71172;SDS011;58875;51.996;4.504;2023-06-14T07:28:44;5.98;;;5.98;;
71172;SDS011;58875;51.996;4.504;2023-06-14T07:31:10;5.67;;;5.67;;
71172;SDS011;58875;51.996;4.504;2023-06-14T07:33:37;5.98;;;5.98;;
71172;SDS011;58875;51.996;4.504;2023-06-14T07:36:03;5.60;;;5.60;;
71172;SDS011;58875;51.996;4.504;2023-06-14T07:38:29;6.00;;;6.00;;
71172;SDS011;58875;51.996;4.504;2023-06-14T07:40:54;5.83;;;5.83;;
71172;SDS011;58875;51.996;4.504;2023-06-14T07:43:20;5.84;;;5.84;;
71172;SDS011;58875;51.996;4.504;2023-06-14T07:45:46;5.96;;;5.96;;
71172;SDS011;58875;51.996;4.504;2023-06-14T07:48:11;5.83;;;5.83;;
71172;SDS011;58875;51.996;4.504;2023-06-14T07:50:37;6.05;;;6.05;;
71172;SDS011;58875;51.996;4.504;2023-06-14T07:53:02;5.94;;;5.94;;
71172;SDS011;58875;51.996;4.504;2023-06-14T07:55:28;5.80;;;5.80;;
71172;SDS011;58875;51.996;4.504;2023-06-14T07:57:54;5.78;;;5.78;;
71172;SDS011;58875;51.996;4.504;2023-06-14T08:00:19;5.89;;;5.89;;
71172;SDS011;58875;51.996;4.504;2023-06-14T08:02:46;6.18;;;6.18;;
71172;SDS011;58875;51.996;4.504;2023-06-14T08:05:11;5.90;;;5.90;;
71172;SDS011;58875;51.996;4.504;2023-06-14T08:07:38;5.93;;;5.93;;
71172;SDS011;58875;51.996;4.504;2023-06-14T08:10:04;5.81;;;5.81;;
71172;SDS011;58875;51.996;4.504;2023-06-14T08:12:31;6.00;;;6.00;;
71172;SDS011;58875;51.996;4.504;2023-06-14T08:14:57;5.97;;;5.97;;
71172;SDS011;58875;51.996;4.504;2023-06-14T08:17:22;5.99;;;5.99;;
71172;SDS011;58875;51.996;4.504;2023-06-14T08:19:48;5.97;;;5.97;;
71172;SDS011;58875;51.996;4.504;2023-06-14T08:22:13;5.76;;;5.76;;
71172;SDS011;58875;51.996;4.504;2023-06-14T08:24:39;5.97;;;5.97;;
71172;SDS011;58875;51.996;4.504;2023-06-14T08:27:06;5.86;;;5.86;;
71172;SDS011;58875;51.996;4.504;2023-06-14T08:29:32;5.65;;;5.65;;
71172;SDS011;58875;51.996;4.504;2023-06-14T08:31:58;5.74;;;5.74;;
71172;SDS011;58875;51.996;4.504;2023-06-14T08:34:23;5.60;;;5.60;;
71172;SDS011;58875;51.996;4.504;2023-06-14T08:36:52;5.89;;;5.89;;
71172;SDS011;58875;51.996;4.504;2023-06-14T08:39:18;5.72;;;5.72;;
71172;SDS011;58875;51.996;4.504;2023-06-14T08:41:47;5.81;;;5.81;;
71172;SDS011;58875;51.996;4.504;2023-06-14T08:44:14;5.94;;;5.94;;
71172;SDS011;58875;51.996;4.504;2023-06-14T08:46:41;5.95;;;5.95;;
71172;SDS011;58875;51.996;4.504;2023-06-14T08:49:08;6.17;;;6.17;;
71172;SDS011;58875;51.996;4.504;2023-06-14T08:51:37;5.92;;;5.92;;
71172;SDS011;58875;51.996;4.504;2023-06-14T08:54:03;5.64;;;5.64;;
71172;SDS011;58875;51.996;4.504;2023-06-14T08:56:32;5.97;;;5.97;;
71172;SDS011;58875;51.996;4.504;2023-06-14T08:58:59;5.67;;;5.67;;
71172;SDS011;58875;51.996;4.504;2023-06-14T09:01:35;5.41;;;5.41;;
71172;SDS011;58875;51.996;4.504;2023-06-14T09:04:02;5.17;;;5.17;;
71172;SDS011;58875;51.996;4.504;2023-06-14T09:06:30;5.43;;;5.43;;
71172;SDS011;58875;51.996;4.504;2023-06-14T09:08:56;5.47;;;5.47;;
71172;SDS011;58875;51.996;4.504;2023-06-14T09:11:22;5.64;;;5.64;;
71172;SDS011;58875;51.996;4.504;2023-06-14T09:13:49;5.35;;;5.35;;
71172;SDS011;58875;51.996;4.504;2023-06-14T09:16:16;5.23;;;5.23;;
71172;SDS011;58875;51.996;4.504;2023-06-14T09:18:43;5.41;;;5.41;;
71172;SDS011;58875;51.996;4.504;2023-06-14T09:21:12;5.34;;;5.34;;
71172;SDS011;58875;51.996;4.504;2023-06-14T09:26:12;5.48;;;5.48;;
71172;SDS011;58875;51.996;4.504;2023-06-14T09:28:43;5.46;;;5.46;;
71172;SDS011;58875;51.996;4.504;2023-06-14T09:31:13;5.38;;;5.38;;
71172;SDS011;58875;51.996;4.504;2023-06-14T09:33:46;4.87;;;4.87;;
71172;SDS011;58875;51.996;4.504;2023-06-14T09:36:17;5.08;;;5.08;;
71172;SDS011;58875;51.996;4.504;2023-06-14T09:38:55;5.09;;;5.09;;
71172;SDS011;58875;51.996;4.504;2023-06-14T09:41:32;4.82;;;4.82;;
71172;SDS011;58875;51.996;4.504;2023-06-14T09:44:02;5.01;;;5.01;;
71172;SDS011;58875;51.996;4.504;2023-06-14T09:46:30;4.78;;;4.78;;
71172;SDS011;58875;51.996;4.504;2023-06-14T09:48:59;4.55;;;4.55;;
71172;SDS011;58875;51.996;4.504;2023-06-14T09:51:26;4.75;;;4.75;;
71172;SDS011;58875;51.996;4.504;2023-06-14T09:53:53;4.70;;;4.70;;
71172;SDS011;58875;51.996;4.504;2023-06-14T09:56:27;4.36;;;4.36;;
71172;SDS011;58875;51.996;4.504;2023-06-14T09:58:58;4.34;;;4.34;;
71172;SDS011;58875;51.996;4.504;2023-06-14T10:01:25;4.41;;;4.41;;
71172;SDS011;58875;51.996;4.504;2023-06-14T10:03:55;4.30;;;4.30;;
71172;SDS011;58875;51.996;4.504;2023-06-14T10:06:30;4.22;;;4.22;;
71172;SDS011;58875;51.996;4.504;2023-06-14T10:08:57;4.26;;;4.26;;
71172;SDS011;58875;51.996;4.504;2023-06-14T10:11:27;3.96;;;3.96;;
71172;SDS011;58875;51.996;4.504;2023-06-14T10:13:53;4.25;;;4.25;;
71172;SDS011;58875;51.996;4.504;2023-06-14T10:16:23;4.03;;;4.03;;
71172;SDS011;58875;51.996;4.504;2023-06-14T10:21:53;3.82;;;3.82;;
71172;SDS011;58875;51.996;4.504;2023-06-14T10:24:29;3.74;;;3.74;;
71172;SDS011;58875;51.996;4.504;2023-06-14T10:27:05;3.63;;;3.63;;
71172;SDS011;58875;51.996;4.504;2023-06-14T10:30:01;3.42;;;3.42;;
71172;SDS011;58875;51.996;4.504;2023-06-14T10:32:27;3.69;;;3.69;;
71172;SDS011;58875;51.996;4.504;2023-06-14T10:34:54;3.57;;;3.57;;
71172;SDS011;58875;51.996;4.504;2023-06-14T10:37:21;3.38;;;3.38;;
71172;SDS011;58875;51.996;4.504;2023-06-14T10:39:47;3.26;;;3.26;;
71172;SDS011;58875;51.996;4.504;2023-06-14T10:42:13;3.14;;;3.14;;
71172;SDS011;58875;51.996;4.504;2023-06-14T10:44:40;3.27;;;3.27;;
71172;SDS011;58875;51.996;4.504;2023-06-14T10:47:50;3.38;;;3.38;;
71172;SDS011;58875;51.996;4.504;2023-06-14T10:50:02;3.39;;;3.39;;
71172;SDS011;58875;51.996;4.504;2023-06-14T10:52:40;3.41;;;3.41;;
71172;SDS011;58875;51.996;4.504;2023-06-14T10:55:14;3.15;;;3.15;;
71172;SDS011;58875;51.996;4.504;2023-06-14T11:00:17;3.32;;;3.32;;
71172;SDS011;58875;51.996;4.504;2023-06-14T11:11:08;3.16;;;3.16;;
71172;SDS011;58875;51.996;4.504;2023-06-14T11:13:43;3.09;;;3.09;;
71172;SDS011;58875;51.996;4.504;2023-06-14T11:16:11;3.17;;;3.17;;
71172;SDS011;58875;51.996;4.504;2023-06-14T11:18:37;3.26;;;3.26;;
71172;SDS011;58875;51.996;4.504;2023-06-14T11:21:03;3.02;;;3.02;;
71172;SDS011;58875;51.996;4.504;2023-06-14T11:23:29;3.03;;;3.03;;
71172;SDS011;58875;51.996;4.504;2023-06-14T11:25:54;2.76;;;2.76;;
71172;SDS011;58875;51.996;4.504;2023-06-14T11:28:20;2.86;;;2.86;;
71172;SDS011;58875;51.996;4.504;2023-06-14T11:30:47;2.87;;;2.87;;
71172;SDS011;58875;51.996;4.504;2023-06-14T11:33:16;2.63;;;2.63;;
71172;SDS011;58875;51.996;4.504;2023-06-14T11:35:43;2.68;;;2.68;;
71172;SDS011;58875;51.996;4.504;2023-06-14T11:38:10;2.84;;;2.84;;
71172;SDS011;58875;51.996;4.504;2023-06-14T11:40:37;2.70;;;2.70;;
71172;SDS011;58875;51.996;4.504;2023-06-14T11:43:03;2.69;;;2.69;;
71172;SDS011;58875;51.996;4.504;2023-06-14T11:45:30;2.55;;;2.55;;
71172;SDS011;58875;51.996;4.504;2023-06-14T11:47:57;2.59;;;2.59;;
71172;SDS011;58875;51.996;4.504;2023-06-14T11:50:24;2.63;;;2.63;;
71172;SDS011;58875;51.996;4.504;2023-06-14T11:55:21;2.40;;;2.40;;
71172;SDS011;58875;51.996;4.504;2023-06-14T11:57:48;2.68;;;2.68;;
71172;SDS011;58875;51.996;4.504;2023-06-14T12:00:13;2.61;;;2.61;;
71172;SDS011;58875;51.996;4.504;2023-06-14T12:02:40;2.53;;;2.53;;
71172;SDS011;58875;51.996;4.504;2023-06-14T12:05:07;2.65;;;2.65;;
71172;SDS011;58875;51.996;4.504;2023-06-14T12:07:36;2.59;;;2.59;;
71172;SDS011;58875;51.996;4.504;2023-06-14T12:10:05;2.49;;;2.49;;
71172;SDS011;58875;51.996;4.504;2023-06-14T12:12:36;2.50;;;2.50;;
71172;SDS011;58875;51.996;4.504;2023-06-14T12:15:06;2.84;;;2.84;;
71172;SDS011;58875;51.996;4.504;2023-06-14T12:17:34;2.51;;;2.51;;
71172;SDS011;58875;51.996;4.504;2023-06-14T12:20:08;2.43;;;2.43;;
71172;SDS011;58875;51.996;4.504;2023-06-14T12:22:36;2.54;;;2.54;;
71172;SDS011;58875;51.996;4.504;2023-06-14T12:25:03;2.51;;;2.51;;
71172;SDS011;58875;51.996;4.504;2023-06-14T12:27:29;2.49;;;2.49;;
71172;SDS011;58875;51.996;4.504;2023-06-14T12:29:59;2.41;;;2.41;;
71172;SDS011;58875;51.996;4.504;2023-06-14T12:32:28;2.32;;;2.32;;
71172;SDS011;58875;51.996;4.504;2023-06-14T12:34:54;2.60;;;2.60;;
71172;SDS011;58875;51.996;4.504;2023-06-14T12:37:20;2.56;;;2.56;;
71172;SDS011;58875;51.996;4.504;2023-06-14T12:39:45;2.67;;;2.67;;
71172;SDS011;58875;51.996;4.504;2023-06-14T12:42:11;2.70;;;2.70;;
71172;SDS011;58875;51.996;4.504;2023-06-14T12:44:39;2.62;;;2.62;;
71172;SDS011;58875;51.996;4.504;2023-06-14T12:47:06;2.93;;;2.93;;
71172;SDS011;58875;51.996;4.504;2023-06-14T12:49:32;2.69;;;2.69;;
71172;SDS011;58875;51.996;4.504;2023-06-14T12:51:58;2.92;;;2.92;;
71172;SDS011;58875;51.996;4.504;2023-06-14T12:54:24;2.74;;;2.74;;
71172;SDS011;58875;51.996;4.504;2023-06-14T12:56:52;2.70;;;2.70;;
71172;SDS011;58875;51.996;4.504;2023-06-14T12:59:20;2.74;;;2.74;;
71172;SDS011;58875;51.996;4.504;2023-06-14T13:01:45;2.76;;;2.76;;
71172;SDS011;58875;51.996;4.504;2023-06-14T13:04:12;2.56;;;2.56;;
71172;SDS011;58875;51.996;4.504;2023-06-14T13:06:38;2.54;;;2.54;;
71172;SDS011;58875;51.996;4.504;2023-06-14T13:09:03;2.74;;;2.74;;
71172;SDS011;58875;51.996;4.504;2023-06-14T13:11:29;2.67;;;2.67;;
71172;SDS011;58875;51.996;4.504;2023-06-14T13:13:58;2.60;;;2.60;;
71172;SDS011;58875;51.996;4.504;2023-06-14T13:16:24;2.52;;;2.52;;
71172;SDS011;58875;51.996;4.504;2023-06-14T13:18:49;2.71;;;2.71;;
71172;SDS011;58875;51.996;4.504;2023-06-14T13:21:15;2.57;;;2.57;;
71172;SDS011;58875;51.996;4.504;2023-06-14T13:23:40;2.63;;;2.63;;
71172;SDS011;58875;51.996;4.504;2023-06-14T13:26:06;2.56;;;2.56;;
71172;SDS011;58875;51.996;4.504;2023-06-14T13:28:32;2.57;;;2.57;;
71172;SDS011;58875;51.996;4.504;2023-06-14T13:30:57;2.61;;;2.61;;
71172;SDS011;58875;51.996;4.504;2023-06-14T13:33:23;2.80;;;2.80;;
71172;SDS011;58875;51.996;4.504;2023-06-14T13:35:49;2.48;;;2.48;;
71172;SDS011;58875;51.996;4.504;2023-06-14T13:38:17;2.65;;;2.65;;
71172;SDS011;58875;51.996;4.504;2023-06-14T13:40:43;2.56;;;2.56;;
71172;SDS011;58875;51.996;4.504;2023-06-14T13:43:08;2.51;;;2.51;;
71172;SDS011;58875;51.996;4.504;2023-06-14T13:45:35;2.66;;;2.66;;
71172;SDS011;58875;51.996;4.504;2023-06-14T13:48:00;2.80;;;2.80;;
71172;SDS011;58875;51.996;4.504;2023-06-14T13:50:26;2.46;;;2.46;;
71172;SDS011;58875;51.996;4.504;2023-06-14T13:52:51;2.62;;;2.62;;
71172;SDS011;58875;51.996;4.504;2023-06-14T13:55:17;2.79;;;2.79;;
71172;SDS011;58875;51.996;4.504;2023-06-14T13:57:43;2.70;;;2.70;;
71172;SDS011;58875;51.996;4.504;2023-06-14T14:00:08;2.92;;;2.92;;
71172;SDS011;58875;51.996;4.504;2023-06-14T14:02:34;2.89;;;2.89;;
71172;SDS011;58875;51.996;4.504;2023-06-14T14:05:00;2.63;;;2.63;;
71172;SDS011;58875;51.996;4.504;2023-06-14T14:07:25;2.66;;;2.66;;
71172;SDS011;58875;51.996;4.504;2023-06-14T14:09:51;2.78;;;2.78;;
71172;SDS011;58875;51.996;4.504;2023-06-14T14:12:18;2.57;;;2.57;;
71172;SDS011;58875;51.996;4.504;2023-06-14T14:14:44;2.89;;;2.89;;
71172;SDS011;58875;51.996;4.504;2023-06-14T14:17:09;2.70;;;2.70;;
71172;SDS011;58875;51.996;4.504;2023-06-14T14:19:35;2.86;;;2.86;;
71172;SDS011;58875;51.996;4.504;2023-06-14T14:22:01;2.87;;;2.87;;
71172;SDS011;58875;51.996;4.504;2023-06-14T14:24:27;2.70;;;2.70;;
71172;SDS011;58875;51.996;4.504;2023-06-14T14:26:53;2.77;;;2.77;;
71172;SDS011;58875;51.996;4.504;2023-06-14T14:29:19;2.91;;;2.91;;
71172;SDS011;58875;51.996;4.504;2023-06-14T14:31:45;3.13;;;3.13;;
71172;SDS011;58875;51.996;4.504;2023-06-14T14:34:10;2.71;;;2.71;;
71172;SDS011;58875;51.996;4.504;2023-06-14T14:36:36;2.82;;;2.82;;
71172;SDS011;58875;51.996;4.504;2023-06-14T14:39:03;2.77;;;2.77;;
71172;SDS011;58875;51.996;4.504;2023-06-14T14:41:29;2.55;;;2.55;;
71172;SDS011;58875;51.996;4.504;2023-06-14T14:43:55;2.74;;;2.74;;
71172;SDS011;58875;51.996;4.504;2023-06-14T14:46:20;2.80;;;2.80;;
71172;SDS011;58875;51.996;4.504;2023-06-14T14:48:46;2.79;;;2.79;;
71172;SDS011;58875;51.996;4.504;2023-06-14T14:51:11;2.58;;;2.58;;
71172;SDS011;58875;51.996;4.504;2023-06-14T14:53:37;2.49;;;2.49;;
71172;SDS011;58875;51.996;4.504;2023-06-14T14:56:02;2.43;;;2.43;;
71172;SDS011;58875;51.996;4.504;2023-06-14T14:58:28;2.58;;;2.58;;
71172;SDS011;58875;51.996;4.504;2023-06-14T15:00:53;2.85;;;2.85;;
71172;SDS011;58875;51.996;4.504;2023-06-14T15:03:20;2.56;;;2.56;;
71172;SDS011;58875;51.996;4.504;2023-06-14T15:05:45;2.85;;;2.85;;
71172;SDS011;58875;51.996;4.504;2023-06-14T15:08:12;2.86;;;2.86;;
71172;SDS011;58875;51.996;4.504;2023-06-14T15:10:38;2.80;;;2.80;;